createdAt,value
2023-01-03T00:01:34.319Z,36.83
2023-01-03T00:04:02.239Z,34.78
2023-01-03T00:06:56.494Z,33.55
2023-01-03T00:09:24.729Z,33.33
2023-01-03T00:12:12.622Z,33.35
2023-01-03T00:14:42.837Z,32.72
2023-01-03T00:17:11.053Z,35.35
2023-01-03T00:19:43.809Z,33.05
2023-01-03T00:22:12.454Z,33.35
2023-01-03T00:24:39.464Z,33.20
2023-01-03T00:27:06.953Z,32.33
2023-01-03T00:29:34.058Z,33.10
2023-01-03T00:32:01.269Z,31.05
2023-01-03T00:34:28.685Z,30.80
2023-01-03T00:36:55.961Z,32.80
2023-01-03T00:39:23.202Z,31.70
2023-01-03T00:41:50.285Z,32.28
2023-01-03T00:44:17.330Z,32.53
2023-01-03T00:46:44.576Z,32.28
2023-01-03T00:49:11.778Z,31.90
2023-01-03T00:51:41.692Z,30.80
2023-01-03T00:54:09.521Z,30.38
2023-01-03T00:56:40.368Z,31.05
2023-01-03T00:59:07.994Z,29.17
2023-01-03T01:01:46.780Z,30.45
2023-01-03T01:04:22.839Z,30.65
2023-01-03T01:06:52.123Z,32.22
2023-01-03T01:09:27.964Z,31.73
2023-01-03T01:11:55.628Z,32.28
2023-01-03T01:14:25.810Z,29.35
2023-01-03T01:17:01.999Z,31.83
2023-01-03T01:19:32.303Z,31.23
2023-01-03T01:21:59.856Z,32.38
2023-01-03T01:24:27.445Z,31.88
2023-01-03T01:26:54.623Z,32.33
2023-01-03T01:29:23.978Z,33.70
2023-01-03T01:31:51.131Z,33.67
2023-01-03T01:34:18.701Z,32.65
2023-01-03T01:36:46.521Z,33.95
2023-01-03T01:39:21.787Z,33.03
2023-01-03T01:42:11.724Z,33.95
2023-01-03T01:45:02.921Z,31.30
2023-01-03T01:47:59.665Z,33.33
2023-01-03T01:50:29.471Z,31.52
2023-01-03T01:53:03.105Z,32.78
2023-01-03T01:55:45.265Z,30.48
2023-01-03T01:58:12.879Z,34.50
2023-01-03T02:00:42.402Z,33.50
2023-01-03T02:03:10.297Z,35.40
2023-01-03T02:05:41.488Z,34.35
2023-01-03T02:08:08.380Z,34.28
2023-01-03T02:10:53.142Z,34.15
2023-01-03T02:13:26.345Z,33.88
2023-01-03T02:16:18.290Z,36.60
2023-01-03T02:19:01.495Z,35.42
2023-01-03T02:21:34.126Z,35.22
2023-01-03T02:24:39.382Z,37.13
2023-01-03T02:27:31.185Z,36.08
2023-01-03T02:30:22.890Z,34.15
2023-01-03T02:32:49.659Z,32.95
2023-01-03T02:35:19.629Z,31.98
2023-01-03T02:37:57.319Z,31.05
2023-01-03T02:40:49.715Z,31.08
2023-01-03T02:43:31.376Z,32.30
2023-01-03T02:46:26.570Z,32.67
2023-01-03T02:49:04.360Z,31.05
2023-01-03T02:51:37.957Z,29.10
2023-01-03T02:54:10.039Z,30.20
2023-01-03T02:56:54.661Z,30.90
2023-01-03T02:59:38.175Z,34.22
2023-01-03T03:02:07.074Z,33.28
2023-01-03T03:04:37.973Z,33.75
2023-01-03T03:07:10.277Z,33.95
2023-01-03T03:09:57.061Z,30.88
2023-01-03T03:12:44.352Z,30.30
2023-01-03T03:15:14.509Z,32.22
2023-01-03T03:17:42.981Z,35.05
2023-01-03T03:20:35.956Z,36.05
2023-01-03T03:23:29.080Z,34.95
2023-01-03T03:26:00.583Z,37.78
2023-01-03T03:28:35.105Z,37.75
2023-01-03T03:31:11.295Z,34.90
2023-01-03T03:33:44.470Z,34.17
2023-01-03T03:36:17.720Z,34.67
2023-01-03T03:38:45.972Z,35.38
2023-01-03T03:41:51.722Z,39.22
2023-01-03T03:44:43.096Z,39.60
2023-01-03T03:47:45.233Z,35.10
2023-01-03T03:50:18.621Z,44.47
2023-01-03T03:52:49.212Z,35.17
2023-01-03T03:55:21.709Z,34.17
2023-01-03T03:58:00.058Z,37.67
2023-01-03T04:00:31.572Z,39.85
2023-01-03T04:03:01.802Z,38.22
2023-01-03T04:05:34.513Z,47.05
2023-01-03T04:08:01.660Z,42.10
2023-01-03T04:10:34.028Z,48.05
2023-01-03T04:13:04.325Z,39.75
2023-01-03T04:15:31.384Z,42.40
2023-01-03T04:17:58.347Z,36.42
2023-01-03T04:20:25.442Z,37.92
2023-01-03T04:22:52.252Z,38.28
2023-01-03T04:25:19.062Z,38.95
2023-01-03T04:27:46.101Z,35.78
2023-01-03T04:30:13.402Z,37.28
2023-01-03T04:32:40.681Z,39.42
2023-01-03T04:35:08.063Z,34.55
2023-01-03T04:37:34.920Z,36.15
2023-01-03T04:40:01.843Z,41.35
2023-01-03T04:42:47.176Z,43.05
2023-01-03T04:45:14.144Z,37.92
2023-01-03T04:47:40.960Z,42.55
2023-01-03T04:50:09.682Z,38.88
2023-01-03T04:52:36.623Z,41.72
2023-01-03T04:55:03.916Z,40.25
2023-01-03T04:57:30.781Z,44.97
2023-01-03T04:59:57.651Z,42.70
2023-01-03T05:02:24.586Z,37.13
2023-01-03T05:04:51.513Z,37.58
2023-01-03T05:07:18.665Z,40.78
2023-01-03T05:09:45.771Z,34.40
2023-01-03T05:12:12.788Z,34.60
2023-01-03T05:14:42.417Z,34.38
2023-01-03T05:17:09.903Z,39.92
2023-01-03T05:19:56.849Z,39.30
2023-01-03T05:22:42.623Z,35.97
2023-01-03T05:25:29.327Z,35.72
2023-01-03T05:27:57.487Z,37.67
2023-01-03T05:30:25.235Z,37.85
2023-01-03T05:32:52.389Z,36.75
2023-01-03T05:35:22.404Z,36.20
2023-01-03T05:37:52.582Z,38.28
2023-01-03T05:40:19.372Z,43.30
2023-01-03T05:42:54.986Z,35.33
2023-01-03T05:45:25.666Z,34.13
2023-01-03T05:47:52.838Z,33.38
2023-01-03T05:50:19.847Z,36.55
2023-01-03T05:52:49.279Z,35.95
2023-01-03T05:55:16.560Z,35.30
2023-01-03T05:57:43.848Z,33.38
2023-01-03T06:00:11.509Z,37.30
2023-01-03T06:02:38.573Z,34.20
2023-01-03T06:05:07.049Z,38.22
2023-01-03T06:07:36.689Z,35.35
2023-01-03T06:10:09.344Z,33.38
2023-01-03T06:12:36.252Z,34.63
2023-01-03T06:15:03.636Z,32.75
2023-01-03T06:18:06.925Z,33.63
2023-01-03T06:20:34.080Z,33.65
2023-01-03T06:23:01.468Z,33.72
2023-01-03T06:25:28.316Z,32.70
2023-01-03T06:27:55.661Z,34.08
2023-01-03T06:30:23.245Z,35.55
2023-01-03T06:32:52.209Z,36.65
2023-01-03T06:35:19.107Z,35.38
2023-01-03T06:37:46.185Z,34.70
2023-01-03T06:40:13.552Z,37.63
2023-01-03T06:42:42.458Z,36.03
2023-01-03T06:45:30.781Z,33.70
2023-01-03T06:48:17.553Z,36.53
2023-01-03T06:51:03.914Z,34.67
2023-01-03T06:53:37.671Z,36.78
2023-01-03T06:56:08.179Z,32.58
2023-01-03T06:58:35.802Z,35.80
2023-01-03T07:01:05.336Z,32.75
2023-01-03T07:03:33.209Z,32.60
2023-01-03T07:06:00.292Z,35.20
2023-01-03T07:08:28.101Z,33.85
2023-01-03T07:10:55.822Z,32.97
2023-01-03T07:13:41.652Z,34.58
2023-01-03T07:16:18.342Z,33.47
2023-01-03T07:18:52.828Z,33.97
2023-01-03T07:24:49.322Z,30.30
2023-01-03T07:27:20.878Z,32.25
2023-01-03T07:32:29.496Z,32.22
2023-01-03T07:34:56.359Z,32.88
2023-01-03T07:37:23.291Z,34.60
2023-01-03T07:39:50.230Z,35.55
2023-01-03T07:42:35.322Z,35.33
2023-01-03T07:45:02.601Z,32.75
2023-01-03T07:47:31.028Z,34.58
2023-01-03T07:49:58.007Z,36.15
2023-01-03T07:52:24.893Z,34.97
2023-01-03T07:54:52.075Z,34.17
2023-01-03T07:57:20.037Z,34.72
2023-01-03T07:59:46.855Z,33.42
2023-01-03T08:02:13.738Z,34.03
2023-01-03T08:04:40.719Z,33.15
2023-01-03T08:07:11.197Z,33.13
2023-01-03T08:09:56.720Z,32.75
2023-01-03T08:12:42.066Z,43.45
2023-01-03T08:15:09.386Z,35.72
2023-01-03T08:17:36.133Z,32.10
2023-01-03T08:20:03.551Z,32.58
2023-01-03T08:22:31.058Z,31.65
2023-01-03T08:25:03.243Z,34.00
2023-01-03T08:29:59.348Z,29.48
2023-01-03T08:32:27.054Z,29.40
2023-01-03T08:34:54.578Z,28.10
2023-01-03T08:37:21.756Z,32.88
2023-01-03T08:39:58.018Z,29.80
2023-01-03T08:42:26.210Z,29.55
2023-01-03T08:45:01.383Z,28.20
2023-01-03T08:47:29.572Z,28.83
2023-01-03T08:49:58.222Z,30.33
2023-01-03T08:52:27.883Z,27.20
2023-01-03T08:54:58.623Z,25.63
2023-01-03T08:57:25.707Z,24.73
2023-01-03T08:59:52.715Z,24.92
2023-01-03T09:02:20.268Z,26.20
2023-01-03T09:04:47.280Z,25.40
2023-01-03T09:07:14.256Z,23.10
2023-01-03T09:09:41.277Z,21.77
2023-01-03T09:12:08.101Z,24.95
2023-01-03T09:14:35.008Z,24.42
2023-01-03T09:17:02.995Z,24.38
2023-01-03T09:19:36.903Z,25.05
2023-01-03T09:22:03.901Z,24.65
2023-01-03T09:24:30.866Z,24.67
2023-01-03T09:26:58.028Z,24.05
2023-01-03T09:29:27.639Z,21.65
2023-01-03T09:31:56.103Z,22.45
2023-01-03T09:34:28.074Z,21.80
2023-01-03T09:36:54.954Z,20.77
2023-01-03T09:39:21.853Z,21.75
2023-01-03T09:42:08.676Z,20.85
2023-01-03T09:44:35.543Z,19.30
2023-01-03T09:47:03.632Z,21.02
2023-01-03T09:49:30.833Z,20.50
2023-01-03T09:52:16.331Z,20.92
2023-01-03T09:55:01.687Z,30.02
2023-01-03T09:57:54.842Z,79.22
2023-01-03T10:00:52.011Z,20.05
2023-01-03T10:03:50.499Z,17.90
2023-01-03T10:06:57.648Z,17.83
2023-01-03T10:09:55.891Z,18.13
2023-01-03T10:12:31.237Z,19.60
2023-01-03T10:15:47.072Z,20.27
2023-01-03T10:18:27.831Z,18.92
2023-01-03T10:21:08.177Z,20.05
2023-01-03T10:23:36.174Z,20.70
2023-01-03T10:26:11.734Z,20.85
2023-01-03T10:28:43.758Z,19.27
2023-01-03T10:34:08.570Z,22.90
2023-01-03T10:36:36.039Z,21.02
2023-01-03T10:39:11.367Z,24.88
2023-01-03T10:41:52.842Z,21.83
2023-01-03T10:44:30.213Z,21.25
2023-01-03T10:47:00.701Z,20.73
2023-01-03T10:49:32.702Z,18.52
2023-01-03T10:52:25.132Z,18.98
2023-01-03T10:55:23.270Z,19.33
2023-01-03T10:57:53.415Z,20.50
2023-01-03T11:00:36.191Z,18.30
2023-01-03T11:03:25.567Z,18.75
2023-01-03T11:06:02.609Z,20.13
2023-01-03T11:08:49.024Z,20.80
2023-01-03T11:11:53.024Z,20.33
2023-01-03T11:14:27.377Z,21.40
2023-01-03T11:17:03.736Z,20.58
2023-01-03T11:20:12.085Z,20.55
2023-01-03T11:22:44.933Z,21.10
2023-01-03T11:25:34.351Z,21.80
2023-01-03T11:31:22.103Z,21.63
2023-01-03T11:35:11.679Z,21.80
2023-01-03T11:37:45.565Z,21.07
2023-01-03T11:40:33.794Z,22.25
2023-01-03T11:43:22.051Z,22.15
2023-01-03T11:46:12.932Z,22.08
2023-01-03T11:49:11.781Z,22.30
2023-01-03T11:52:18.713Z,21.73
2023-01-03T11:55:13.942Z,22.75
2023-01-03T11:57:54.513Z,22.83
2023-01-03T12:00:39.780Z,23.63
2023-01-03T12:03:15.674Z,23.27
2023-01-03T12:05:51.842Z,23.95
2023-01-03T12:08:37.279Z,23.65
2023-01-03T12:11:22.884Z,23.92
2023-01-03T12:16:57.847Z,24.52
2023-01-03T12:19:35.600Z,23.95
2023-01-03T12:22:27.935Z,23.83
2023-01-03T12:37:31.075Z,28.75
2023-01-03T12:43:15.948Z,27.13
2023-01-03T12:46:04.563Z,27.73
2023-01-03T12:48:49.081Z,28.17
2023-01-03T12:54:12.219Z,29.13
2023-01-03T12:56:47.912Z,28.73
2023-01-03T13:02:52.200Z,29.73
2023-01-03T13:05:35.257Z,31.35
2023-01-03T13:08:32.790Z,30.27
2023-01-03T13:11:08.577Z,30.10
2023-01-03T13:13:36.107Z,30.88
2023-01-03T13:16:33.527Z,32.05
2023-01-03T13:19:24.136Z,31.17
2023-01-03T13:22:23.482Z,30.80
2023-01-03T13:24:52.785Z,29.95
2023-01-03T13:27:26.842Z,29.77
2023-01-03T13:30:00.302Z,29.95
2023-01-03T13:32:37.888Z,30.55
2023-01-03T13:35:10.105Z,30.58
2023-01-03T13:37:43.028Z,31.35
2023-01-03T13:41:07.523Z,29.42
2023-01-03T13:43:20.391Z,30.85
2023-01-03T13:45:47.308Z,30.23
2023-01-03T13:48:19.595Z,29.92
2023-01-03T13:51:07.759Z,30.23
2023-01-03T13:53:51.813Z,32.35
2023-01-03T13:56:23.242Z,30.08
2023-01-03T14:02:24.638Z,31.15
2023-01-03T14:05:29.999Z,29.52
2023-01-03T14:08:09.879Z,30.30
2023-01-03T14:11:04.246Z,44.22
2023-01-03T14:14:02.465Z,32.50
2023-01-03T14:16:59.303Z,32.83
2023-01-03T14:19:32.413Z,31.83
2023-01-03T14:22:26.496Z,29.73
2023-01-03T14:24:55.431Z,30.35
2023-01-03T14:27:26.238Z,31.85
2023-01-03T14:29:55.675Z,33.92
2023-01-03T14:32:34.656Z,32.05
2023-01-03T14:35:02.930Z,31.58
2023-01-03T14:37:30.907Z,31.58
2023-01-03T14:40:01.026Z,31.88
2023-01-03T14:42:30.706Z,31.70
2023-01-03T14:45:06.793Z,30.77
2023-01-03T14:47:39.646Z,32.58
2023-01-03T14:50:11.469Z,31.83
2023-01-03T14:52:41.589Z,32.10
2023-01-03T14:55:19.915Z,32.13
2023-01-03T14:57:50.592Z,31.30
2023-01-03T15:00:31.882Z,31.00
2023-01-03T15:03:00.199Z,33.88
2023-01-03T15:05:39.479Z,33.42
2023-01-03T15:08:15.346Z,31.58
2023-01-03T15:10:51.413Z,34.28
2023-01-03T15:13:42.260Z,32.30
2023-01-03T15:16:30.924Z,33.88
2023-01-03T15:19:25.984Z,33.25
2023-01-03T15:22:06.735Z,33.58
2023-01-03T15:24:43.173Z,34.42
2023-01-03T15:27:34.216Z,34.40
2023-01-03T15:30:19.214Z,34.42
2023-01-03T15:32:55.034Z,33.42
2023-01-03T15:35:40.895Z,33.03
2023-01-03T15:38:44.510Z,35.17
2023-01-03T15:41:44.923Z,33.03
2023-01-03T15:44:13.498Z,35.50
2023-01-03T15:46:49.002Z,35.35
2023-01-03T15:49:20.380Z,35.55
2023-01-03T15:51:49.398Z,35.72
2023-01-03T15:54:18.531Z,36.50
2023-01-03T15:57:04.692Z,38.88
2023-01-03T15:59:43.159Z,35.35
2023-01-03T16:02:18.582Z,35.33
2023-01-03T16:04:52.655Z,37.33
2023-01-03T16:07:20.286Z,38.67
2023-01-03T16:09:47.434Z,37.50
2023-01-03T16:12:33.907Z,36.20
2023-01-03T16:15:05.155Z,35.75
2023-01-03T16:17:32.671Z,36.92
2023-01-03T16:20:00.696Z,36.08
2023-01-03T16:22:34.992Z,39.13
2023-01-03T16:25:07.436Z,37.83
2023-01-03T16:27:35.466Z,42.05
2023-01-03T16:30:04.829Z,41.22
2023-01-03T16:32:32.792Z,38.35
2023-01-03T16:35:01.992Z,35.97
2023-01-03T16:37:29.362Z,38.15
2023-01-03T16:39:56.557Z,37.25
2023-01-03T16:42:27.740Z,36.92
2023-01-03T16:44:55.536Z,52.08
2023-01-03T16:47:35.795Z,60.83
2023-01-03T16:50:20.051Z,53.92
2023-01-03T16:52:56.353Z,81.57
2023-01-03T16:55:26.089Z,61.10
2023-01-03T16:57:54.907Z,54.47
2023-01-03T17:00:25.453Z,46.95
2023-01-03T17:02:55.828Z,45.05
2023-01-03T17:05:30.042Z,43.78
2023-01-03T17:08:07.215Z,37.75
2023-01-03T17:10:39.725Z,43.28
2023-01-03T17:13:12.353Z,58.03
2023-01-03T17:15:41.518Z,55.95
2023-01-03T17:18:20.990Z,57.05
2023-01-03T17:20:59.448Z,56.83
2023-01-03T17:23:46.220Z,49.10
2023-01-03T17:29:03.532Z,54.72
2023-01-03T17:31:30.739Z,50.53
2023-01-03T17:39:29.327Z,46.90
2023-01-03T17:42:16.149Z,48.72
2023-01-03T17:45:14.997Z,50.15
2023-01-03T17:48:04.177Z,49.15
2023-01-03T17:50:33.332Z,50.55
2023-01-03T17:55:45.052Z,48.95
2023-01-03T17:58:18.442Z,50.45
2023-01-03T18:00:45.735Z,51.65
2023-01-03T18:03:12.853Z,48.00
2023-01-03T18:05:39.998Z,49.40
2023-01-03T18:08:14.253Z,52.30
2023-01-03T18:10:46.929Z,53.42
2023-01-03T18:13:43.072Z,50.17
2023-01-03T18:16:16.220Z,47.65
2023-01-03T18:18:43.525Z,47.67
2023-01-03T18:21:27.781Z,46.05
2023-01-03T18:24:19.259Z,44.75
2023-01-03T18:26:55.226Z,45.80
2023-01-03T18:29:22.180Z,46.30
2023-01-03T18:31:58.214Z,45.67
2023-01-03T18:34:25.059Z,47.63
2023-01-03T18:36:52.577Z,49.78
2023-01-03T18:39:28.528Z,49.78
2023-01-03T18:42:21.327Z,59.63
2023-01-03T18:44:50.034Z,65.45
2023-01-03T18:47:19.104Z,62.17
2023-01-03T18:49:46.230Z,55.60
2023-01-03T18:52:25.829Z,64.65
2023-01-03T18:54:53.553Z,54.72
2023-01-03T18:57:20.647Z,123.82
2023-01-03T18:59:49.467Z,143.45
2023-01-03T19:02:25.233Z,116.15
2023-01-03T19:04:56.227Z,130.80
2023-01-03T19:07:31.237Z,76.18
2023-01-03T19:09:59.260Z,57.25
2023-01-03T19:12:27.615Z,50.33
2023-01-03T19:14:54.579Z,51.28
2023-01-03T19:17:21.733Z,49.22
2023-01-03T19:20:00.528Z,50.35
2023-01-03T19:22:29.660Z,48.78
2023-01-03T19:25:00.769Z,50.55
2023-01-03T19:27:40.022Z,51.13
2023-01-03T19:30:18.044Z,49.55
2023-01-03T19:32:52.464Z,51.72
2023-01-03T19:35:19.894Z,49.80
2023-01-03T19:37:47.463Z,51.72
2023-01-03T19:40:16.677Z,51.63
2023-01-03T19:42:55.479Z,50.00
2023-01-03T19:45:38.789Z,49.45
2023-01-03T19:48:27.991Z,55.90
2023-01-03T19:50:55.125Z,54.15
2023-01-03T19:53:22.143Z,54.00
2023-01-03T19:55:52.290Z,57.85
2023-01-03T19:58:24.253Z,56.08
2023-01-03T20:00:52.195Z,53.75
2023-01-03T20:03:39.983Z,53.17
2023-01-03T20:06:14.308Z,53.35
2023-01-03T20:08:41.401Z,55.28
2023-01-03T20:11:19.610Z,55.00
2023-01-03T20:13:47.238Z,53.95
2023-01-03T20:16:15.839Z,50.17
2023-01-03T20:18:52.630Z,51.05
2023-01-03T20:21:30.668Z,52.85
2023-01-03T20:24:05.845Z,53.47
2023-01-03T20:26:34.725Z,54.42
2023-01-03T20:29:01.968Z,55.13
2023-01-03T20:34:57.146Z,54.03
2023-01-03T20:37:24.268Z,56.70
2023-01-03T20:39:55.502Z,49.67
2023-01-03T20:42:30.562Z,37.90
2023-01-03T20:44:58.771Z,39.75
2023-01-03T20:47:25.762Z,43.15
2023-01-03T20:49:52.602Z,39.90
2023-01-03T20:52:19.901Z,41.33
2023-01-03T20:54:47.660Z,42.08
2023-01-03T21:00:06.411Z,37.65
2023-01-03T21:02:33.411Z,40.20
2023-01-03T21:05:00.549Z,37.45
2023-01-03T21:10:29.813Z,31.15
2023-01-03T21:12:58.723Z,32.35
2023-01-03T21:15:25.991Z,50.80
2023-01-03T21:17:54.378Z,33.90
2023-01-03T21:20:27.467Z,37.22
2023-01-03T21:22:54.861Z,30.38
2023-01-03T21:25:24.472Z,35.00
2023-01-03T21:27:51.912Z,35.38
2023-01-03T21:30:21.130Z,32.25
2023-01-03T21:32:48.201Z,31.92
2023-01-03T21:35:18.708Z,31.70
2023-01-03T21:37:46.693Z,27.80
2023-01-03T21:40:23.551Z,29.73
2023-01-03T21:43:05.436Z,27.50
2023-01-03T21:45:40.533Z,28.90
2023-01-03T21:48:12.404Z,30.65
2023-01-03T21:50:44.929Z,30.30
2023-01-03T21:53:24.550Z,29.20
2023-01-03T21:55:52.053Z,27.90
2023-01-03T21:58:21.238Z,25.17
2023-01-03T22:00:48.177Z,24.83
2023-01-03T22:03:35.799Z,24.45
2023-01-03T22:06:11.731Z,24.55
2023-01-03T22:08:41.684Z,25.88
2023-01-03T22:11:08.769Z,23.85
2023-01-03T22:13:36.170Z,24.60
2023-01-03T22:16:05.400Z,25.13
2023-01-03T22:18:33.343Z,25.98
2023-01-03T22:21:08.160Z,23.83
2023-01-03T22:23:35.775Z,25.95
2023-01-03T22:26:12.017Z,24.55
2023-01-03T22:28:42.917Z,22.90
2023-01-03T22:31:16.495Z,23.63
2023-01-03T22:33:48.482Z,23.70
2023-01-03T22:36:17.737Z,22.17
2023-01-03T22:38:44.993Z,22.40
2023-01-03T22:41:17.395Z,22.50
2023-01-03T22:43:45.450Z,22.30
2023-01-03T22:46:15.355Z,22.63
2023-01-03T22:48:43.790Z,23.02
2023-01-03T22:51:13.937Z,23.35
2023-01-03T22:53:42.231Z,23.63
2023-01-03T22:56:11.750Z,23.58
2023-01-03T22:58:39.313Z,21.52
2023-01-03T23:01:18.043Z,21.88
2023-01-03T23:03:46.800Z,22.40
2023-01-03T23:06:17.920Z,24.25
2023-01-03T23:08:45.498Z,22.67
2023-01-03T23:11:34.671Z,22.10
2023-01-03T23:14:04.593Z,22.40
2023-01-03T23:16:32.465Z,21.48
2023-01-03T23:19:02.430Z,22.17
2023-01-03T23:21:31.222Z,21.95
2023-01-03T23:23:58.785Z,20.38
2023-01-03T23:26:25.868Z,23.02
2023-01-03T23:28:57.377Z,22.73
2023-01-03T23:31:27.659Z,24.40
2023-01-03T23:33:59.199Z,21.42
2023-01-03T23:36:27.012Z,22.33
2023-01-03T23:38:54.900Z,22.30
2023-01-03T23:41:24.856Z,21.00
2023-01-03T23:43:54.725Z,21.98
2023-01-03T23:46:23.469Z,21.77
2023-01-03T23:48:57.399Z,22.00
2023-01-03T23:51:27.546Z,22.02
2023-01-03T23:53:54.460Z,22.48
2023-01-03T23:56:23.612Z,22.17
2023-01-03T23:58:51.371Z,21.77
